Time;durP1;ratioP1;P1;durP2;ratioP2;P2;SDS_P1;SDS_P2;PMS_P1;PMS_P2;Temp;Humidity;BMP_temperature;BMP_pressure;BME280_temperature;BME280_humidity;BME280_pressure;Samples;Min_cycle;Max_cycle;Signal;HPM_P1;HPM_P2
2022/03/06 00:01:44;;;;;;;;;;;;;;;;;;8282667;28;19928;-61
2022/03/06 00:05:44;;;;;;;;;;;;;;;;;;8287563;28;20012;-62
2022/03/06 00:09:44;;;;;;;;;;;;;;;;;;8282860;28;20381;-61
2022/03/06 00:13:45;;;;;;;;;;;;;;;;;;8285932;28;20834;-62
2022/03/06 00:17:45;;;;;;;;;;;;;;;;;;8284356;28;19956;-61
2022/03/06 00:21:45;;;;;;;;;;;;;;;;;;8283854;28;20366;-61
2022/03/06 00:25:45;;;;;;;;;;;;;;;;;;8280677;28;19913;-62
2022/03/06 00:29:45;;;;;;;;;;;;;;;;;;8280686;28;19955;-61
2022/03/06 00:33:45;;;;;;;;;;;;;;;;;;8282007;28;19924;-62
2022/03/06 00:37:45;;;;;;;;;;;;;;;;;;8280917;28;19921;-61
2022/03/06 00:41:46;;;;;;;;;;;;;;;;;;8282195;28;19921;-61
2022/03/06 00:45:46;;;;;;;;;;;;;;;;;;8288308;28;19924;-62
2022/03/06 00:49:46;;;;;;;;;;;;;;;;;;8289817;28;20015;-61
2022/03/06 00:53:46;;;;;;;;;;;;;;;;;;8271404;28;19919;-61
2022/03/06 00:57:46;;;;;;;;;;;;;;;;;;8291819;28;19923;-61
2022/03/06 01:01:46;;;;;;;;;;;;;;;;;;8288953;28;20674;-61
2022/03/06 01:05:46;;;;;;;;;;;;;;;;;;8288356;28;19912;-61
2022/03/06 01:09:46;;;;;;;;;;;;;;;;;;8286492;28;20551;-62
2022/03/06 01:13:47;;;;;;;;;;;;;;;;;;8287558;28;20248;-61
2022/03/06 01:17:47;;;;;;;;;;;;;;;;;;8287670;28;19948;-62
2022/03/06 01:21:47;;;;;;;;;;;;;;;;;;8286471;28;19916;-62
2022/03/06 01:25:47;;;;;;;;;;;;;;;;;;8287830;28;19913;-62
2022/03/06 01:29:47;;;;;;;;;;;;;;;;;;8287418;28;19913;-62
2022/03/06 01:33:47;;;;;;;;;;;;;;;;;;8286137;28;19917;-62
2022/03/06 01:37:47;;;;;;;;;;;;;;;;;;8286372;28;19951;-62
2022/03/06 01:41:47;;;;;;;;;;;;;;;;;;8284503;28;20558;-62
2022/03/06 01:45:47;;;;;;;;;;;;;;;;;;8286634;28;20566;-62
2022/03/06 01:49:47;;;;;;;;;;;;;;;;;;8287701;28;20400;-61
2022/03/06 01:53:47;;;;;;;;;;;;;;;;;;8288940;28;19958;-61
2022/03/06 01:57:47;;;;;;;;;;;;;;;;;;8289912;28;19921;-61
2022/03/06 02:01:48;;;;;;;;;;;;;;;;;;8288072;28;19920;-62
2022/03/06 02:05:48;;;;;;;;;;;;;;;;;;8289628;28;20039;-62
2022/03/06 02:09:48;;;;;;;;;;;;;;;;;;8285699;28;20006;-62
2022/03/06 02:13:48;;;;;;;;;;;;;;;;;;8290260;28;20034;-61
2022/03/06 02:17:48;;;;;;;;;;;;;;;;;;8286767;28;20153;-62
2022/03/06 02:21:48;;;;;;;;;;;;;;;;;;8285487;28;20005;-61
2022/03/06 02:25:48;;;;;;;;;;;;;;;;;;8284274;28;19912;-62
2022/03/06 02:29:48;;;;;;;;;;;;;;;;;;8284211;28;19908;-61
2022/03/06 02:33:49;;;;;;;;;;;;;;;;;;8282785;28;20398;-62
2022/03/06 02:37:49;;;;;;;;;;;;;;;;;;8281674;28;20026;-61
2022/03/06 02:41:49;;;;;;;;;;;;;;;;;;8281160;28;19959;-61
2022/03/06 02:45:50;;;;;;;;;;;;;;;;;;8285781;28;19917;-62
2022/03/06 02:49:51;;;;;;;;;;;;;;;;;;8286590;28;19947;-62
2022/03/06 02:53:51;;;;;;;;;;;;;;;;;;8286111;28;20330;-62
2022/03/06 02:57:51;;;;;;;;;;;;;;;;;;8285723;28;19917;-62
2022/03/06 03:01:51;;;;;;;;;;;;;;;;;;8285469;28;19924;-61
2022/03/06 03:05:51;;;;;;;;;;;;;;;;;;8284956;28;19913;-61
2022/03/06 03:09:52;;;;;;;;;;;;;;;;;;8286267;28;19995;-62
2022/03/06 03:13:52;;;;;;;;;;;;;;;;;;8286617;28;20018;-62
2022/03/06 03:17:52;;;;;;;;;;;;;;;;;;8282643;28;19920;-62
2022/03/06 03:21:52;;;;;;;;;;;;;;;;;;8283820;28;19980;-61
2022/03/06 03:25:52;;;;;;;;;;;;;;;;;;8283704;28;20040;-62
2022/03/06 03:29:53;;;;;;;;;;;;;;;;;;8283462;28;19917;-61
2022/03/06 03:33:53;;;;;;;;;;;;;;;;;;8281681;28;20003;-62
2022/03/06 03:37:53;;;;;;;;;;;;;;;;;;8279218;28;20014;-62
2022/03/06 03:41:53;;;;;;;;;;;;;;;;;;8281152;28;19915;-61
2022/03/06 03:45:53;;;;;;;;;;;;;;;;;;8282172;28;20477;-62
2022/03/06 03:49:53;;;;;;;;;;;;;;;;;;8285488;28;20337;-62
2022/03/06 03:53:53;;;;;;;;;;;;;;;;;;8285489;28;19917;-62
2022/03/06 03:57:53;;;;;;;;;;;;;;;;;;8285004;28;19916;-62
2022/03/06 04:01:54;;;;;;;;;;;;;;;;;;8284226;28;20271;-62
2022/03/06 04:05:54;;;;;;;;;;;;;;;;;;8286916;28;19909;-62
2022/03/06 04:09:54;;;;;;;;;;;;;;;;;;8282082;28;19982;-62
2022/03/06 04:13:54;;;;;;;;;;;;;;;;;;8284659;28;19913;-62
2022/03/06 04:17:54;;;;;;;;;;;;;;;;;;8289742;28;19921;-62
2022/03/06 04:21:54;;;;;;;;;;;;;;;;;;8289903;28;20293;-62
2022/03/06 04:25:54;;;;;;;;;;;;;;;;;;8290284;28;19912;-62
2022/03/06 04:29:54;;;;;;;;;;;;;;;;;;8289278;28;19923;-62
2022/03/06 04:33:55;;;;;;;;;;;;;;;;;;8284420;28;19921;-62
2022/03/06 04:37:55;;;;;;;;;;;;;;;;;;8287159;28;21151;-62
2022/03/06 04:41:55;;;;;;;;;;;;;;;;;;8285167;28;19959;-62
2022/03/06 04:45:55;;;;;;;;;;;;;;;;;;8287135;28;19921;-62
2022/03/06 04:49:55;;;;;;;;;;;;;;;;;;8290384;28;19929;-62
2022/03/06 04:53:55;;;;;;;;;;;;;;;;;;8290292;28;19951;-62
2022/03/06 04:57:56;;;;;;;;;;;;;;;;;;8292223;28;19976;-62
2022/03/06 05:01:56;;;;;;;;;;;;;;;;;;8287834;28;19979;-62
2022/03/06 05:05:56;;;;;;;;;;;;;;;;;;8291093;28;20317;-62
2022/03/06 05:09:56;;;;;;;;;;;;;;;;;;8288182;28;19917;-62
2022/03/06 05:13:56;;;;;;;;;;;;;;;;;;8289414;28;19910;-62
2022/03/06 05:17:56;;;;;;;;;;;;;;;;;;8287325;28;19921;-62
2022/03/06 05:21:56;;;;;;;;;;;;;;;;;;8287983;28;19917;-62
2022/03/06 05:25:57;;;;;;;;;;;;;;;;;;8287142;28;19917;-62
2022/03/06 05:29:57;;;;;;;;;;;;;;;;;;8286236;28;19979;-62
2022/03/06 05:33:57;;;;;;;;;;;;;;;;;;8284690;28;19917;-62
2022/03/06 05:37:57;;;;;;;;;;;;;;;;;;8284745;28;19917;-62
2022/03/06 05:41:57;;;;;;;;;;;;;;;;;;8284465;28;20270;-62
2022/03/06 05:46:00;;;;;;;;;;;;;;;;;;8286269;28;20294;-62
2022/03/06 05:50:00;;;;;;;;;;;;;;;;;;8285908;28;19917;-62
2022/03/06 05:54:01;;;;;;;;;;;;;;;;;;8288946;28;20003;-63
2022/03/06 05:58:01;;;;;;;;;;;;;;;;;;8289156;28;19917;-62
2022/03/06 06:02:01;;;;;;;;;;;;;;;;;;8286675;28;19923;-62
2022/03/06 06:06:01;;;;;;;;;;;;;;;;;;8289721;28;20091;-62
2022/03/06 06:10:01;;;;;;;;;;;;;;;;;;8287467;28;20880;-62
2022/03/06 06:14:02;;;;;;;;;;;;;;;;;;8287386;28;20016;-62
2022/03/06 06:18:02;;;;;;;;;;;;;;;;;;8287852;28;19921;-62
2022/03/06 06:22:02;;;;;;;;;;;;;;;;;;8286912;28;19952;-62
2022/03/06 06:26:02;;;;;;;;;;;;;;;;;;8287678;28;19966;-62
2022/03/06 06:30:02;;;;;;;;;;;;;;;;;;8285955;28;20003;-62
2022/03/06 06:34:02;;;;;;;;;;;;;;;;;;8282584;28;19917;-62
2022/03/06 06:38:02;;;;;;;;;;;;;;;;;;8284148;28;20362;-62
2022/03/06 06:42:03;;;;;;;;;;;;;;;;;;8283871;28;20691;-62
2022/03/06 06:46:03;;;;;;;;;;;;;;;;;;8282481;28;19928;-62
2022/03/06 06:50:03;;;;;;;;;;;;;;;;;;8285600;28;19923;-63
2022/03/06 06:54:03;;;;;;;;;;;;;;;;;;8286042;28;19970;-63
2022/03/06 06:58:03;;;;;;;;;;;;;;;;;;8287346;28;20711;-62
2022/03/06 07:02:03;;;;;;;;;;;;;;;;;;8286006;28;20271;-62
2022/03/06 07:06:04;;;;;;;;;;;;;;;;;;8286815;28;19920;-62
2022/03/06 07:10:04;;;;;;;;;;;;;;;;;;8286743;28;19917;-62
2022/03/06 07:14:04;;;;;;;;;;;;;;;;;;8287274;28;20446;-62
2022/03/06 07:18:04;;;;;;;;;;;;;;;;;;8286896;28;19979;-62
2022/03/06 07:22:04;;;;;;;;;;;;;;;;;;8286990;28;20330;-62
2022/03/06 07:26:05;;;;;;;;;;;;;;;;;;8284415;28;19917;-62
2022/03/06 07:30:05;;;;;;;;;;;;;;;;;;8282779;28;19924;-62
2022/03/06 07:34:05;;;;;;;;;;;;;;;;;;8283677;28;19909;-62
2022/03/06 07:38:05;;;;;;;;;;;;;;;;;;8282696;28;20155;-62
2022/03/06 07:42:05;;;;;;;;;;;;;;;;;;8281388;28;20346;-62
2022/03/06 07:46:05;;;;;;;;;;;;;;;;;;8280912;28;19921;-62
2022/03/06 07:50:05;;;;;;;;;;;;;;;;;;8284455;28;19917;-62
2022/03/06 07:54:07;;;;;;;;;;;;;;;;;;8292241;28;19924;-62
2022/03/06 07:58:08;;;;;;;;;;;;;;;;;;8292022;28;19917;-62
2022/03/06 08:02:08;;;;;;;;;;;;;;;;;;8291580;28;19928;-63
2022/03/06 08:06:08;;;;;;;;;;;;;;;;;;8280434;28;19984;-62
2022/03/06 08:10:08;;;;;;;;;;;;;;;;;;8291170;28;19917;-62
2022/03/06 08:14:08;;;;;;;;;;;;;;;;;;8291478;28;19909;-62
2022/03/06 08:18:08;;;;;;;;;;;;;;;;;;8293582;28;20376;-62
2022/03/06 08:22:09;;;;;;;;;;;;;;;;;;8291033;28;19959;-62
2022/03/06 08:26:09;;;;;;;;;;;;;;;;;;8285896;28;19920;-62
2022/03/06 08:30:09;;;;;;;;;;;;;;;;;;8286867;28;19916;-63
2022/03/06 08:34:09;;;;;;;;;;;;;;;;;;8287573;28;19913;-62
2022/03/06 08:38:09;;;;;;;;;;;;;;;;;;8283482;28;19925;-62
2022/03/06 08:42:09;;;;;;;;;;;;;;;;;;8285018;28;19912;-62
2022/03/06 08:46:09;;;;;;;;;;;;;;;;;;8285551;28;20035;-62
2022/03/06 08:50:09;;;;;;;;;;;;;;;;;;8285314;28;19913;-62
2022/03/06 08:54:09;;;;;;;;;;;;;;;;;;8287422;28;20652;-63
2022/03/06 08:58:10;;;;;;;;;;;;;;;;;;8286921;28;19950;-63
2022/03/06 09:02:10;;;;;;;;;;;;;;;;;;8286103;28;19917;-62
2022/03/06 09:06:10;;;;;;;;;;;;;;;;;;8283335;28;20333;-63
2022/03/06 09:10:10;;;;;;;;;;;;;;;;;;8283259;28;19959;-62
2022/03/06 09:14:10;;;;;;;;;;;;;;;;;;8285329;28;20008;-62
2022/03/06 09:18:10;;;;;;;;;;;;;;;;;;8284866;28;19921;-62
2022/03/06 09:22:10;;;;;;;;;;;;;;;;;;8285578;28;19916;-62
2022/03/06 09:26:11;;;;;;;;;;;;;;;;;;8284963;28;20011;-63
2022/03/06 09:30:11;;;;;;;;;;;;;;;;;;8281896;28;19917;-63
2022/03/06 09:34:11;;;;;;;;;;;;;;;;;;8284380;28;20614;-62
2022/03/06 09:38:11;;;;;;;;;;;;;;;;;;8282386;28;20253;-62
2022/03/06 09:42:11;;;;;;;;;;;;;;;;;;8274318;28;20741;-62
2022/03/06 09:46:11;;;;;;;;;;;;;;;;;;8272492;28;20691;-62
2022/03/06 09:50:11;;;;;;;;;;;;;;;;;;8283063;28;20457;-62
2022/03/06 09:54:12;;;;;;;;;;;;;;;;;;8265155;28;19948;-62
2022/03/06 09:58:14;;;;;;;;;;;;;;;;;;8287452;28;20211;-62
2022/03/06 10:02:14;;;;;;;;;;;;;;;;;;8283335;28;20008;-62
2022/03/06 10:06:15;;;;;;;;;;;;;;;;;;8285919;28;19971;-62
2022/03/06 10:10:15;;;;;;;;;;;;;;;;;;8282984;28;19917;-62
2022/03/06 10:14:15;;;;;;;;;;;;;;;;;;8283636;28;20039;-62
2022/03/06 10:18:15;;;;;;;;;;;;;;;;;;8284521;28;19943;-62
2022/03/06 10:22:15;;;;;;;;;;;;;;;;;;8283410;28;19920;-62
2022/03/06 10:26:15;;;;;;;;;;;;;;;;;;8282852;28;20374;-62
2022/03/06 10:30:15;;;;;;;;;;;;;;;;;;8282168;28;20161;-62
2022/03/06 10:34:17;;;;;;;;;;;;;;;;;;8280671;28;20020;-62
2022/03/06 10:38:17;;;;;;;;;;;;;;;;;;8280858;28;20925;-62
2022/03/06 10:42:17;;;;;;;;;;;;;;;;;;8280197;28;19919;-62
2022/03/06 10:46:18;;;;;;;;;;;;;;;;;;8278646;28;19956;-62
2022/03/06 10:50:18;;;;;;;;;;;;;;;;;;8277873;28;19961;-62
2022/03/06 10:54:18;;;;;;;;;;;;;;;;;;8281892;28;20015;-63
2022/03/06 10:58:18;;;;;;;;;;;;;;;;;;8285294;28;19918;-63
2022/03/06 11:02:18;;;;;;;;;;;;;;;;;;8280043;28;19918;-62
2022/03/06 11:06:18;;;;;;;;;;;;;;;;;;8282640;28;20289;-62
2022/03/06 11:10:18;;;;;;;;;;;;;;;;;;8281438;28;20035;-62
2022/03/06 11:14:18;;;;;;;;;;;;;;;;;;8283086;28;19923;-63
2022/03/06 11:18:19;;;;;;;;;;;;;;;;;;8279255;28;19921;-62
2022/03/06 11:22:19;;;;;;;;;;;;;;;;;;8283746;28;20015;-63
2022/03/06 11:26:19;;;;;;;;;;;;;;;;;;8279257;28;19913;-63
2022/03/06 11:30:20;;;;;;;;;;;;;;;;;;8280285;28;19913;-62
2022/03/06 11:34:20;;;;;;;;;;;;;;;;;;8279207;28;20837;-63
2022/03/06 11:38:21;;;;;;;;;;;;;;;;;;8276014;28;19946;-63
2022/03/06 11:42:21;;;;;;;;;;;;;;;;;;8278430;28;19909;-62
2022/03/06 11:46:21;;;;;;;;;;;;;;;;;;8270050;28;19975;-63
2022/03/06 11:50:21;;;;;;;;;;;;;;;;;;8268859;28;20035;-63
2022/03/06 11:54:21;;;;;;;;;;;;;;;;;;8278835;28;20689;-63
2022/03/06 11:58:21;;;;;;;;;;;;;;;;;;8281993;28;19917;-63
2022/03/06 12:02:21;;;;;;;;;;;;;;;;;;8279886;28;19995;-63
2022/03/06 12:06:22;;;;;;;;;;;;;;;;;;8282406;28;19917;-64
2022/03/06 12:10:22;;;;;;;;;;;;;;;;;;8280544;28;19956;-63
2022/03/06 12:14:22;;;;;;;;;;;;;;;;;;8278926;28;21107;-63
2022/03/06 12:19:36;;;;;;;;;;;;;;;;;;8205226;27;128173;-62
2022/03/06 12:23:37;;;;;;;;;;;;;;;;;;8208103;28;19918;-62
2022/03/06 12:27:37;;;;;;;;;;;;;;;;;;8213919;28;20831;-62
2022/03/06 12:31:37;;;;;;;;;;;;;;;;;;8215339;28;19922;-62
2022/03/06 12:35:37;;;;;;;;;;;;;;;;;;8213686;28;19969;-62
2022/03/06 12:39:37;;;;;;;;;;;;;;;;;;8212745;28;20024;-62
2022/03/06 12:43:37;;;;;;;;;;;;;;;;;;8212520;28;19918;-63
2022/03/06 12:47:38;;;;;;;;;;;;;;;;;;8211290;28;20415;-62
2022/03/06 12:51:38;;;;;;;;;;;;;;;;;;8215044;28;19918;-62
2022/03/06 12:55:38;;;;;;;;;;;;;;;;;;8216627;28;19958;-62
2022/03/06 12:59:40;;;;;;;;;;;;;;;;;;8217583;28;20320;-62
2022/03/06 13:03:40;;;;;;;;;;;;;;;;;;8216737;28;21158;-62
2022/03/06 13:07:40;;;;;;;;;;;;;;;;;;8217624;28;19961;-63
2022/03/06 13:11:40;;;;;;;;;;;;;;;;;;8217262;28;20806;-62
2022/03/06 13:15:41;;;;;;;;;;;;;;;;;;8218404;28;20747;-62
2022/03/06 13:19:41;;;;;;;;;;;;;;;;;;8249551;28;20351;-62
2022/03/06 13:23:41;;;;;;;;;;;;;;;;;;8251144;28;19924;-62
2022/03/06 13:27:42;;;;;;;;;;;;;;;;;;8246367;28;20028;-62
2022/03/06 13:31:42;;;;;;;;;;;;;;;;;;8225651;28;19929;-63
2022/03/06 13:35:42;;;;;;;;;;;;;;;;;;8226594;28;19925;-62
2022/03/06 13:39:43;;;;;;;;;;;;;;;;;;8224080;28;20777;-62
2022/03/06 13:43:47;;;;;;;;;;;;;;;;;;8224287;28;19921;-62
2022/03/06 13:47:47;;;;;;;;;;;;;;;;;;8222872;28;19961;-62
2022/03/06 13:51:47;;;;;;;;;;;;;;;;;;8221838;28;19918;-63
2022/03/06 13:55:48;;;;;;;;;;;;;;;;;;8225505;28;20040;-62
2022/03/06 13:59:48;;;;;;;;;;;;;;;;;;8227318;28;19988;-62
2022/03/06 14:03:48;;;;;;;;;;;;;;;;;;8226394;28;20260;-62
2022/03/06 14:07:48;;;;;;;;;;;;;;;;;;8224746;28;19918;-62
2022/03/06 14:11:48;;;;;;;;;;;;;;;;;;8227359;28;20808;-62
2022/03/06 14:15:48;;;;;;;;;;;;;;;;;;8240921;28;19925;-62
2022/03/06 14:19:48;;;;;;;;;;;;;;;;;;8226491;28;19918;-62
2022/03/06 14:23:48;;;;;;;;;;;;;;;;;;8226604;28;20518;-62
2022/03/06 14:27:49;;;;;;;;;;;;;;;;;;8226210;28;19924;-62
2022/03/06 14:31:50;;;;;;;;;;;;;;;;;;8225420;28;19921;-62
2022/03/06 14:35:50;;;;;;;;;;;;;;;;;;8239474;28;19972;-62
2022/03/06 14:39:51;;;;;;;;;;;;;;;;;;8222343;28;20456;-62
2022/03/06 14:43:51;;;;;;;;;;;;;;;;;;8222394;28;19918;-62
2022/03/06 14:47:51;;;;;;;;;;;;;;;;;;8220908;28;19971;-62
2022/03/06 14:51:51;;;;;;;;;;;;;;;;;;8221387;28;19922;-62
2022/03/06 14:55:52;;;;;;;;;;;;;;;;;;8221328;28;19922;-62
2022/03/06 14:59:52;;;;;;;;;;;;;;;;;;8223715;28;19934;-62
2022/03/06 15:03:52;;;;;;;;;;;;;;;;;;8224069;28;20696;-62
2022/03/06 15:07:52;;;;;;;;;;;;;;;;;;8225912;28;19921;-62
2022/03/06 15:11:52;;;;;;;;;;;;;;;;;;8224801;28;19956;-62
2022/03/06 15:15:52;;;;;;;;;;;;;;;;;;8223738;28;20295;-62
2022/03/06 15:19:52;;;;;;;;;;;;;;;;;;8223883;28;20819;-62
2022/03/06 15:23:52;;;;;;;;;;;;;;;;;;8222538;28;20036;-62
2022/03/06 15:27:52;;;;;;;;;;;;;;;;;;8225441;28;19957;-62
2022/03/06 15:31:53;;;;;;;;;;;;;;;;;;8223259;28;19929;-62
2022/03/06 15:35:53;;;;;;;;;;;;;;;;;;8223170;28;20310;-62
2022/03/06 15:39:53;;;;;;;;;;;;;;;;;;8221258;28;19918;-62
2022/03/06 15:43:53;;;;;;;;;;;;;;;;;;8222690;28;19918;-62
2022/03/06 15:47:53;;;;;;;;;;;;;;;;;;8220080;28;19929;-62
2022/03/06 15:51:53;;;;;;;;;;;;;;;;;;8220479;28;19922;-62
2022/03/06 15:55:53;;;;;;;;;;;;;;;;;;8218480;28;20438;-62
2022/03/06 15:59:53;;;;;;;;;;;;;;;;;;8220125;28;20048;-63
2022/03/06 16:03:53;;;;;;;;;;;;;;;;;;8221682;28;20044;-62
2022/03/06 16:07:54;;;;;;;;;;;;;;;;;;8223249;28;19918;-62
2022/03/06 16:11:54;;;;;;;;;;;;;;;;;;8223379;28;20876;-62
2022/03/06 16:15:55;;;;;;;;;;;;;;;;;;8222766;28;19926;-62
2022/03/06 16:19:55;;;;;;;;;;;;;;;;;;8221928;28;19929;-62
2022/03/06 16:23:55;;;;;;;;;;;;;;;;;;8223780;28;19930;-62
2022/03/06 16:27:55;;;;;;;;;;;;;;;;;;8222822;28;19918;-62
2022/03/06 16:31:55;;;;;;;;;;;;;;;;;;8221846;28;19922;-62
2022/03/06 16:35:55;;;;;;;;;;;;;;;;;;8223965;28;19924;-62
2022/03/06 16:39:56;;;;;;;;;;;;;;;;;;8221507;28;19917;-62
2022/03/06 16:43:56;;;;;;;;;;;;;;;;;;8222002;28;20008;-62
2022/03/06 16:47:56;;;;;;;;;;;;;;;;;;8219191;28;19921;-62
2022/03/06 16:51:57;;;;;;;;;;;;;;;;;;8220010;28;19918;-62
2022/03/06 16:55:57;;;;;;;;;;;;;;;;;;8218532;28;19925;-62
2022/03/06 16:59:57;;;;;;;;;;;;;;;;;;8218974;28;20041;-62
2022/03/06 17:03:57;;;;;;;;;;;;;;;;;;8219615;28;19922;-63
2022/03/06 17:07:57;;;;;;;;;;;;;;;;;;8226100;28;19918;-63
2022/03/06 17:11:58;;;;;;;;;;;;;;;;;;8213113;28;19924;-62
2022/03/06 17:15:58;;;;;;;;;;;;;;;;;;8226822;28;20299;-62
2022/03/06 17:19:58;;;;;;;;;;;;;;;;;;8222727;28;20186;-62
2022/03/06 17:23:58;;;;;;;;;;;;;;;;;;8223086;28;19925;-62
2022/03/06 17:27:58;;;;;;;;;;;;;;;;;;8226695;28;19932;-62
2022/03/06 17:31:58;;;;;;;;;;;;;;;;;;8223104;28;19975;-62
2022/03/06 17:35:58;;;;;;;;;;;;;;;;;;8225752;28;19924;-62
2022/03/06 17:39:58;;;;;;;;;;;;;;;;;;8222983;28;20454;-62
2022/03/06 17:43:59;;;;;;;;;;;;;;;;;;8223375;28;19918;-62
2022/03/06 17:47:59;;;;;;;;;;;;;;;;;;8222467;28;19922;-62
2022/03/06 17:52:00;;;;;;;;;;;;;;;;;;8221232;28;19924;-62
2022/03/06 17:56:00;;;;;;;;;;;;;;;;;;8218860;28;20871;-62
2022/03/06 18:00:01;;;;;;;;;;;;;;;;;;8219898;28;19924;-62
2022/03/06 18:04:01;;;;;;;;;;;;;;;;;;8218907;28;19922;-62
2022/03/06 18:08:01;;;;;;;;;;;;;;;;;;8219935;28;19976;-62
2022/03/06 18:12:01;;;;;;;;;;;;;;;;;;8223251;28;19918;-62
2022/03/06 18:16:01;;;;;;;;;;;;;;;;;;8220796;28;19926;-62
2022/03/06 18:20:01;;;;;;;;;;;;;;;;;;8222782;28;19918;-62
2022/03/06 18:24:02;;;;;;;;;;;;;;;;;;8223336;28;19981;-62
2022/03/06 18:28:02;;;;;;;;;;;;;;;;;;8223859;28;20822;-62
2022/03/06 18:32:02;;;;;;;;;;;;;;;;;;8221225;28;20354;-62
2022/03/06 18:36:02;;;;;;;;;;;;;;;;;;8222412;28;20016;-62
2022/03/06 18:40:02;;;;;;;;;;;;;;;;;;8220133;28;19924;-62
2022/03/06 18:44:02;;;;;;;;;;;;;;;;;;8222825;28;19918;-62
2022/03/06 18:48:02;;;;;;;;;;;;;;;;;;8220481;28;19956;-61
2022/03/06 18:52:03;;;;;;;;;;;;;;;;;;8218130;28;19942;-62
2022/03/06 18:56:03;;;;;;;;;;;;;;;;;;8233858;28;19948;-62
2022/03/06 19:00:03;;;;;;;;;;;;;;;;;;8216646;28;19914;-62
2022/03/06 19:04:03;;;;;;;;;;;;;;;;;;8216731;28;19964;-61
2022/03/06 19:08:03;;;;;;;;;;;;;;;;;;8218940;28;19926;-61
2022/03/06 19:12:03;;;;;;;;;;;;;;;;;;8221472;28;19914;-61
2022/03/06 19:16:04;;;;;;;;;;;;;;;;;;8219482;28;19926;-61
2022/03/06 19:20:04;;;;;;;;;;;;;;;;;;8234498;28;19940;-61
2022/03/06 19:24:04;;;;;;;;;;;;;;;;;;8220023;28;19980;-62
2022/03/06 19:28:04;;;;;;;;;;;;;;;;;;8221381;28;19922;-61
2022/03/06 19:32:05;;;;;;;;;;;;;;;;;;8217002;28;19925;-61
2022/03/06 19:36:05;;;;;;;;;;;;;;;;;;8217895;28;20694;-61
2022/03/06 19:40:05;;;;;;;;;;;;;;;;;;8220881;28;19968;-61
2022/03/06 19:44:05;;;;;;;;;;;;;;;;;;8219271;28;19918;-61
2022/03/06 19:48:06;;;;;;;;;;;;;;;;;;8218193;28;19932;-62
2022/03/06 19:52:07;;;;;;;;;;;;;;;;;;8218516;28;19918;-61
2022/03/06 19:56:08;;;;;;;;;;;;;;;;;;8217545;28;19917;-62
2022/03/06 20:00:08;;;;;;;;;;;;;;;;;;8216308;28;20157;-62
2022/03/06 20:04:08;;;;;;;;;;;;;;;;;;8216787;28;19925;-61
2022/03/06 20:08:08;;;;;;;;;;;;;;;;;;8214463;28;20305;-61
2022/03/06 20:12:08;;;;;;;;;;;;;;;;;;8216728;28;19943;-62
2022/03/06 20:16:09;;;;;;;;;;;;;;;;;;8216668;28;20451;-61
2022/03/06 20:20:09;;;;;;;;;;;;;;;;;;8219140;28;19920;-62
2022/03/06 20:24:09;;;;;;;;;;;;;;;;;;8218958;28;19925;-61
2022/03/06 20:28:09;;;;;;;;;;;;;;;;;;8219311;28;20028;-61
2022/03/06 20:32:09;;;;;;;;;;;;;;;;;;8217565;28;19969;-61
2022/03/06 20:36:10;;;;;;;;;;;;;;;;;;8220512;28;19918;-61
2022/03/06 20:40:10;;;;;;;;;;;;;;;;;;8222200;28;19957;-61
2022/03/06 20:44:10;;;;;;;;;;;;;;;;;;8226945;28;20299;-61
2022/03/06 20:48:10;;;;;;;;;;;;;;;;;;8224066;28;19922;-61
2022/03/06 20:52:10;;;;;;;;;;;;;;;;;;8220099;28;20637;-62
2022/03/06 20:56:11;;;;;;;;;;;;;;;;;;8222124;28;19952;-62
2022/03/06 21:00:11;;;;;;;;;;;;;;;;;;8223037;28;19914;-61
2022/03/06 21:04:12;;;;;;;;;;;;;;;;;;8222886;28;19914;-61
2022/03/06 21:08:12;;;;;;;;;;;;;;;;;;8222218;28;19925;-61
2022/03/06 21:12:12;;;;;;;;;;;;;;;;;;8224310;28;19917;-61
2022/03/06 21:16:13;;;;;;;;;;;;;;;;;;8224364;28;19925;-61
2022/03/06 21:20:13;;;;;;;;;;;;;;;;;;8226299;28;19925;-62
2022/03/06 21:24:14;;;;;;;;;;;;;;;;;;8224539;28;20027;-61
2022/03/06 21:28:14;;;;;;;;;;;;;;;;;;8224654;28;19925;-61
2022/03/06 21:32:14;;;;;;;;;;;;;;;;;;8223045;28;20575;-62
2022/03/06 21:36:14;;;;;;;;;;;;;;;;;;8239286;28;19925;-62
2022/03/06 21:40:14;;;;;;;;;;;;;;;;;;8224154;28;19913;-61
2022/03/06 21:44:14;;;;;;;;;;;;;;;;;;8224044;28;19917;-61
2022/03/06 21:48:15;;;;;;;;;;;;;;;;;;8222667;28;19928;-61
2022/03/06 21:52:15;;;;;;;;;;;;;;;;;;8221803;28;19924;-61
2022/03/06 21:56:15;;;;;;;;;;;;;;;;;;8221809;28;19917;-61
2022/03/06 22:00:15;;;;;;;;;;;;;;;;;;8225961;28;20377;-61
2022/03/06 22:04:15;;;;;;;;;;;;;;;;;;8222705;28;19941;-61
2022/03/06 22:08:15;;;;;;;;;;;;;;;;;;8224201;28;19918;-61
2022/03/06 22:12:15;;;;;;;;;;;;;;;;;;8225980;28;19928;-61
2022/03/06 22:16:15;;;;;;;;;;;;;;;;;;8226136;28;19930;-61
2022/03/06 22:20:16;;;;;;;;;;;;;;;;;;8225868;28;20339;-61
2022/03/06 22:24:16;;;;;;;;;;;;;;;;;;8226199;28;19917;-61
2022/03/06 22:28:16;;;;;;;;;;;;;;;;;;8226154;28;19918;-61
2022/03/06 22:32:17;;;;;;;;;;;;;;;;;;8223850;28;19922;-61
2022/03/06 22:36:17;;;;;;;;;;;;;;;;;;8226276;28;19929;-61
2022/03/06 22:40:17;;;;;;;;;;;;;;;;;;8225339;28;19918;-61
2022/03/06 22:44:17;;;;;;;;;;;;;;;;;;8226730;28;20298;-62
2022/03/06 22:48:17;;;;;;;;;;;;;;;;;;8225033;28;20260;-61
2022/03/06 22:52:17;;;;;;;;;;;;;;;;;;8223009;28;20503;-62
2022/03/06 22:56:17;;;;;;;;;;;;;;;;;;8223658;28;19918;-61
2022/03/06 23:00:18;;;;;;;;;;;;;;;;;;8219843;28;20589;-63
2022/03/06 23:08:38;;;;;;;;;;;;;;;;;;8221307;28;20057;-62
2022/03/06 23:12:38;;;;;;;;;;;;;;;;;;8225332;28;19917;-61
2022/03/06 23:16:38;;;;;;;;;;;;;;;;;;8225144;28;19988;-61
2022/03/06 23:20:38;;;;;;;;;;;;;;;;;;8223945;28;19917;-61
2022/03/06 23:24:38;;;;;;;;;;;;;;;;;;8223707;28;20494;-62
2022/03/06 23:28:38;;;;;;;;;;;;;;;;;;8223563;28;20789;-62
2022/03/06 23:32:39;;;;;;;;;;;;;;;;;;8223454;28;19922;-61
2022/03/06 23:36:39;;;;;;;;;;;;;;;;;;8224134;28;20885;-62
2022/03/06 23:40:39;;;;;;;;;;;;;;;;;;8224995;28;20495;-61
2022/03/06 23:44:39;;;;;;;;;;;;;;;;;;8224582;28;20000;-61
2022/03/06 23:48:39;;;;;;;;;;;;;;;;;;8221025;28;20032;-61
2022/03/06 23:52:40;;;;;;;;;;;;;;;;;;8219300;28;19918;-61
2022/03/06 23:56:40;;;;;;;;;;;;;;;;;;8221124;28;19924;-61
